createdAt,value
2023-05-09T00:00:53.217Z,95250.00
2023-05-09T00:03:21.160Z,95261.16
2023-05-09T00:05:48.928Z,95257.84
2023-05-09T00:08:17.012Z,95251.81
2023-05-09T00:10:44.069Z,95260.34
2023-05-09T00:13:12.234Z,95248.47
2023-05-09T00:15:39.409Z,95245.56
2023-05-09T00:18:06.584Z,95264.69
2023-05-09T00:20:34.125Z,95254.16
2023-05-09T00:23:01.291Z,95255.59
2023-05-09T00:25:28.223Z,95240.03
2023-05-09T00:27:55.202Z,95252.13
2023-05-09T00:30:22.112Z,95247.88
2023-05-09T00:32:49.268Z,95247.94
2023-05-09T00:35:16.374Z,95247.88
2023-05-09T00:37:43.387Z,95245.94
2023-05-09T00:40:10.884Z,95243.53
2023-05-09T00:42:37.925Z,95240.59
2023-05-09T00:45:05.599Z,95227.97
2023-05-09T00:47:34.652Z,95245.75
2023-05-09T00:50:02.069Z,95249.69
2023-05-09T00:52:33.343Z,95245.13
2023-05-09T00:55:02.088Z,95243.00
2023-05-09T00:57:31.213Z,95250.13
2023-05-09T00:59:58.291Z,95247.25
2023-05-09T01:02:25.355Z,95231.56
2023-05-09T01:04:52.591Z,95243.50
2023-05-09T01:07:29.996Z,95241.91
2023-05-09T01:10:01.750Z,95241.38
2023-05-09T01:13:04.697Z,95238.38
2023-05-09T01:15:39.246Z,95245.56
2023-05-09T01:18:21.772Z,95239.75
2023-05-09T01:21:03.577Z,95245.56
2023-05-09T01:23:36.583Z,95235.34
2023-05-09T01:26:06.210Z,95242.69
2023-05-09T01:29:15.277Z,95230.50
2023-05-09T01:31:45.432Z,95234.28
2023-05-09T01:34:15.094Z,95198.16
2023-05-09T01:36:43.425Z,95233.34
2023-05-09T01:39:14.206Z,95234.19
2023-05-09T01:41:41.363Z,95236.22
2023-05-09T01:44:12.171Z,95236.16
2023-05-09T01:46:40.391Z,95242.31
2023-05-09T01:49:09.366Z,95244.47
2023-05-09T01:51:38.642Z,95253.34
2023-05-09T01:54:06.780Z,95252.75
2023-05-09T01:56:36.480Z,95238.63
2023-05-09T01:59:06.656Z,95244.31
2023-05-09T02:01:34.971Z,95243.50
2023-05-09T02:04:03.522Z,95250.22
2023-05-09T02:06:32.656Z,95244.50
2023-05-09T02:09:00.536Z,95251.06
2023-05-09T02:11:27.457Z,95257.47
2023-05-09T02:13:54.919Z,95234.16
2023-05-09T02:16:22.558Z,95240.91
2023-05-09T02:18:49.800Z,95243.09
2023-05-09T02:21:17.159Z,95238.69
2023-05-09T02:23:44.884Z,95243.09
2023-05-09T02:26:12.566Z,95242.53
2023-05-09T02:28:41.546Z,95249.59
2023-05-09T02:31:09.103Z,95244.69
2023-05-09T02:33:38.076Z,95249.75
2023-05-09T02:36:06.111Z,95246.31
2023-05-09T02:38:34.210Z,95248.06
2023-05-09T02:41:03.014Z,95242.78
2023-05-09T02:43:29.896Z,95221.44
2023-05-09T02:45:56.944Z,95248.88
2023-05-09T02:48:23.990Z,95244.09
2023-05-09T02:50:51.037Z,95248.69
2023-05-09T02:53:18.117Z,95244.38
2023-05-09T02:55:45.196Z,95245.66
2023-05-09T02:58:14.767Z,95247.88
2023-05-09T03:00:43.784Z,95251.69
2023-05-09T03:03:12.938Z,95246.75
2023-05-09T03:05:40.961Z,95237.50
2023-05-09T03:08:07.940Z,95248.38
2023-05-09T03:10:35.253Z,95251.13
2023-05-09T03:13:03.118Z,95258.84
2023-05-09T03:15:30.075Z,95256.91
2023-05-09T03:17:59.430Z,95260.25
2023-05-09T03:20:27.587Z,95269.28
2023-05-09T03:22:54.629Z,95273.03
2023-05-09T03:25:22.426Z,95283.75
2023-05-09T03:27:49.599Z,95276.81
2023-05-09T03:30:17.299Z,95290.31
2023-05-09T03:32:46.402Z,95291.09
2023-05-09T03:35:13.648Z,95296.19
2023-05-09T03:37:40.837Z,95292.97
2023-05-09T03:40:09.000Z,95293.94
2023-05-09T03:42:42.470Z,95285.78
2023-05-09T03:45:10.647Z,95295.88
2023-05-09T03:47:37.677Z,95298.09
2023-05-09T03:50:06.371Z,95303.84
2023-05-09T03:52:33.936Z,95291.56
2023-05-09T03:55:01.286Z,95292.75
2023-05-09T03:57:32.024Z,95294.72
2023-05-09T03:59:59.103Z,95302.03
2023-05-09T04:02:26.223Z,95306.84
2023-05-09T04:04:53.558Z,95312.53
2023-05-09T04:07:22.729Z,95305.13
2023-05-09T04:09:50.391Z,95297.16
2023-05-09T04:12:17.369Z,95300.44
2023-05-09T04:14:47.380Z,95297.09
2023-05-09T04:17:16.830Z,95306.25
2023-05-09T04:19:43.942Z,95303.22
2023-05-09T04:22:11.314Z,95307.16
2023-05-09T04:24:38.652Z,95311.72
2023-05-09T04:27:05.681Z,95311.84
2023-05-09T04:29:32.687Z,95304.94
2023-05-09T04:31:59.835Z,95303.19
2023-05-09T04:34:28.638Z,95292.59
2023-05-09T04:36:58.907Z,95307.09
2023-05-09T04:39:25.982Z,95307.13
2023-05-09T04:42:01.534Z,95315.59
2023-05-09T04:44:29.028Z,95309.22
2023-05-09T04:46:56.159Z,95306.31
2023-05-09T04:49:23.145Z,95301.03
2023-05-09T04:51:51.154Z,95307.97
2023-05-09T04:54:18.136Z,95307.97
2023-05-09T04:56:45.783Z,95306.94
2023-05-09T04:59:13.677Z,95305.19
2023-05-09T05:01:41.360Z,95303.06
2023-05-09T05:04:08.664Z,95303.97
2023-05-09T05:06:35.742Z,95304.59
2023-05-09T05:09:03.690Z,95305.34
2023-05-09T05:11:31.023Z,95303.72
2023-05-09T05:13:58.034Z,95296.25
2023-05-09T05:16:25.028Z,95298.53
2023-05-09T05:18:52.280Z,95310.25
2023-05-09T05:21:20.453Z,95295.84
2023-05-09T05:23:47.493Z,95302.75
2023-05-09T05:26:15.288Z,95302.75
2023-05-09T05:28:42.644Z,95303.44
2023-05-09T05:31:09.926Z,95305.66
2023-05-09T05:33:37.007Z,95312.09
2023-05-09T05:36:05.249Z,95311.56
2023-05-09T05:38:32.373Z,95312.00
2023-05-09T05:41:00.022Z,95311.59
2023-05-09T05:43:28.345Z,95303.00
2023-05-09T05:45:55.796Z,95308.16
2023-05-09T05:48:24.295Z,95324.44
2023-05-09T05:50:53.264Z,95321.44
2023-05-09T05:53:24.170Z,95296.81
2023-05-09T05:55:51.870Z,95313.03
2023-05-09T05:58:18.941Z,95316.75
2023-05-09T06:00:46.608Z,95318.84
2023-05-09T06:03:14.694Z,95314.59
2023-05-09T06:05:53.232Z,95299.28
2023-05-09T06:08:20.238Z,95300.13
2023-05-09T06:10:47.464Z,95318.16
2023-05-09T06:13:14.684Z,95309.81
2023-05-09T06:15:47.371Z,95311.13
2023-05-09T06:18:14.468Z,95316.50
2023-05-09T06:20:41.359Z,95317.59
2023-05-09T06:23:08.775Z,95295.19
2023-05-09T06:25:35.768Z,95313.16
2023-05-09T06:28:02.838Z,95314.53
2023-05-09T06:30:29.794Z,95298.34
2023-05-09T06:32:58.374Z,95310.66
2023-05-09T06:35:25.537Z,95318.94
2023-05-09T06:37:52.554Z,95321.88
2023-05-09T06:40:19.620Z,95324.00
2023-05-09T06:42:47.015Z,95305.13
2023-05-09T06:45:15.399Z,95320.91
2023-05-09T06:47:42.801Z,95318.00
2023-05-09T06:50:09.907Z,95311.94
2023-05-09T06:52:37.144Z,95318.53
2023-05-09T06:55:04.449Z,95316.84
2023-05-09T06:57:33.058Z,95319.69
2023-05-09T07:00:00.022Z,95322.28
2023-05-09T07:02:27.489Z,95308.91
2023-05-09T07:04:54.508Z,95314.03
2023-05-09T07:07:22.186Z,95310.84
2023-05-09T07:09:50.797Z,95299.53
2023-05-09T07:12:20.020Z,95307.88
2023-05-09T07:14:47.046Z,95304.41
2023-05-09T07:17:22.940Z,95301.75
2023-05-09T07:19:51.671Z,95297.44
2023-05-09T07:22:19.347Z,95318.44
2023-05-09T07:24:46.732Z,95316.56
2023-05-09T07:27:14.180Z,95317.88
2023-05-09T07:29:41.142Z,95322.19
2023-05-09T07:32:08.183Z,95308.47
2023-05-09T07:34:36.119Z,95308.72
2023-05-09T07:37:03.160Z,95313.84
2023-05-09T07:39:30.070Z,95313.00
2023-05-09T07:41:57.270Z,95312.13
2023-05-09T07:44:24.321Z,95318.56
2023-05-09T07:46:51.429Z,95317.44
2023-05-09T07:49:18.358Z,95308.00
2023-05-09T07:51:45.341Z,95309.97
2023-05-09T07:54:12.440Z,95309.41
2023-05-09T07:56:39.549Z,95325.31
2023-05-09T07:59:06.489Z,95316.22
2023-05-09T08:01:33.616Z,95304.16
2023-05-09T08:04:00.619Z,95320.00
2023-05-09T08:06:27.926Z,95309.00
2023-05-09T08:08:54.803Z,95311.44
2023-05-09T08:11:21.769Z,95311.44
2023-05-09T08:13:48.711Z,95308.91
2023-05-09T08:16:17.560Z,95312.94
2023-05-09T08:18:45.030Z,95314.53
2023-05-09T08:21:12.078Z,95314.69
2023-05-09T08:23:40.639Z,95311.44
2023-05-09T08:26:07.635Z,95315.97
2023-05-09T08:28:34.631Z,95318.66
2023-05-09T08:31:01.750Z,95301.88
2023-05-09T08:33:28.704Z,95312.41
2023-05-09T08:35:56.429Z,95320.38
2023-05-09T08:38:24.409Z,95309.25
2023-05-09T08:40:51.810Z,95305.44
2023-05-09T08:43:23.805Z,95315.81
2023-05-09T08:46:01.216Z,95310.16
2023-05-09T08:48:29.089Z,95308.09
2023-05-09T08:50:57.056Z,95304.75
2023-05-09T08:53:24.511Z,95303.09
2023-05-09T08:55:52.269Z,95303.16
2023-05-09T08:58:19.961Z,95292.38
2023-05-09T09:00:47.809Z,95302.28
2023-05-09T09:03:15.671Z,95297.28
2023-05-09T09:05:44.579Z,95297.91
2023-05-09T09:08:11.993Z,95304.41
2023-05-09T09:10:47.657Z,95303.88
2023-05-09T09:13:17.549Z,95309.81
2023-05-09T09:15:47.080Z,95314.09
2023-05-09T09:18:22.640Z,95306.81
2023-05-09T09:20:58.012Z,95312.53
2023-05-09T09:23:26.342Z,95301.97
2023-05-09T09:26:06.296Z,95308.16
2023-05-09T09:28:33.932Z,95300.13
2023-05-09T09:31:01.551Z,95294.22
2023-05-09T09:33:29.738Z,95305.25
2023-05-09T09:35:57.285Z,95305.50
2023-05-09T09:38:25.030Z,95311.13
2023-05-09T09:40:51.869Z,95304.41
2023-05-09T09:43:19.206Z,95316.22
2023-05-09T09:45:52.974Z,95302.69
2023-05-09T09:48:27.519Z,95297.28
2023-05-09T09:50:56.779Z,95293.78
2023-05-09T09:53:26.589Z,95308.69
2023-05-09T09:55:53.910Z,95316.59
2023-05-09T09:58:25.540Z,95318.84
2023-05-09T10:01:13.972Z,95311.41
2023-05-09T10:03:44.067Z,95319.00
2023-05-09T10:06:12.698Z,95311.94
2023-05-09T10:08:40.773Z,95307.31
2023-05-09T10:11:09.053Z,95270.59
2023-05-09T10:13:37.470Z,95303.41
2023-05-09T10:16:06.214Z,95298.44
2023-05-09T10:18:34.628Z,95295.59
2023-05-09T10:21:03.666Z,95296.09
2023-05-09T10:23:31.949Z,95303.78
2023-05-09T10:26:15.417Z,95305.00
2023-05-09T10:28:46.077Z,95299.31
2023-05-09T10:31:18.647Z,95295.69
2023-05-09T10:33:50.527Z,95295.06
2023-05-09T10:36:20.507Z,95283.25
2023-05-09T10:38:49.063Z,95283.00
2023-05-09T10:41:17.520Z,95290.69
2023-05-09T10:43:45.877Z,95289.63
2023-05-09T10:46:13.612Z,95280.81
2023-05-09T10:48:42.373Z,95297.22
2023-05-09T10:51:09.762Z,95280.47
2023-05-09T10:53:44.217Z,95292.69
2023-05-09T10:56:35.925Z,95287.03
2023-05-09T10:59:03.229Z,95302.34
2023-05-09T11:01:39.524Z,95291.31
2023-05-09T11:04:11.516Z,95294.94
2023-05-09T11:06:44.809Z,95296.47
2023-05-09T11:09:35.870Z,95290.78
2023-05-09T11:12:06.151Z,95299.50
2023-05-09T11:14:33.611Z,95308.28
2023-05-09T11:17:04.243Z,95257.84
2023-05-09T11:19:39.062Z,95300.38
2023-05-09T11:22:16.515Z,95299.63
2023-05-09T11:24:46.900Z,95303.59
2023-05-09T11:27:20.716Z,95302.59
2023-05-09T11:29:52.580Z,95298.75
2023-05-09T11:32:21.198Z,95298.72
2023-05-09T11:34:49.460Z,95297.94
2023-05-09T11:37:18.488Z,95297.66
2023-05-09T11:40:04.908Z,95299.63
2023-05-09T11:42:32.564Z,95304.53
2023-05-09T11:44:59.624Z,95280.03
2023-05-09T11:47:28.917Z,95284.53
2023-05-09T11:49:56.049Z,95294.69
2023-05-09T11:52:23.110Z,95286.53
2023-05-09T11:54:50.265Z,95289.38
2023-05-09T11:57:17.965Z,95284.94
2023-05-09T11:59:45.662Z,95286.72
2023-05-09T12:02:13.581Z,95273.91
2023-05-09T12:04:40.796Z,95286.88
2023-05-09T12:07:08.023Z,95277.16
2023-05-09T12:09:38.816Z,95282.13
2023-05-09T12:12:11.606Z,95293.00
2023-05-09T12:14:39.718Z,95298.06
2023-05-09T12:17:08.023Z,95298.44
2023-05-09T12:19:35.733Z,95294.84
2023-05-09T12:22:08.370Z,95295.75
2023-05-09T12:24:37.813Z,95281.09
2023-05-09T12:27:05.247Z,95287.28
2023-05-09T12:29:32.439Z,95295.50
2023-05-09T12:32:00.634Z,95298.25
2023-05-09T12:34:27.886Z,95282.13
2023-05-09T12:36:54.768Z,95302.28
2023-05-09T12:39:23.160Z,95294.72
2023-05-09T12:42:01.171Z,95291.81
2023-05-09T12:44:29.794Z,95295.81
2023-05-09T12:46:59.593Z,95294.50
2023-05-09T12:49:27.429Z,95299.28
2023-05-09T12:51:57.473Z,95289.31
2023-05-09T12:54:26.013Z,95292.06
2023-05-09T12:56:56.918Z,95287.19
2023-05-09T12:59:28.721Z,95294.72
2023-05-09T13:02:01.855Z,95281.25
2023-05-09T13:04:29.342Z,95275.34
2023-05-09T13:06:58.656Z,95278.63
2023-05-09T13:09:27.501Z,95272.13
2023-05-09T13:11:54.581Z,95269.19
2023-05-09T13:14:23.128Z,95273.22
2023-05-09T13:16:50.133Z,95270.53
2023-05-09T13:19:17.330Z,95269.44
2023-05-09T13:21:44.431Z,95264.59
2023-05-09T13:24:11.336Z,95261.88
2023-05-09T13:26:38.268Z,95265.13
2023-05-09T13:29:05.168Z,95263.22
2023-05-09T13:31:32.088Z,95273.59
2023-05-09T13:33:59.238Z,95263.41
2023-05-09T13:36:26.823Z,95266.88
2023-05-09T13:38:53.819Z,95252.16
2023-05-09T13:41:22.410Z,95253.19
2023-05-09T13:43:50.128Z,95271.47
2023-05-09T13:46:17.217Z,95253.72
2023-05-09T13:48:44.514Z,95243.53
2023-05-09T13:51:11.563Z,95270.81
2023-05-09T13:53:39.422Z,95264.66
2023-05-09T13:56:09.711Z,95271.03
2023-05-09T13:58:36.888Z,95261.00
2023-05-09T14:01:04.266Z,95267.44
2023-05-09T14:03:31.944Z,95266.06
2023-05-09T14:05:59.705Z,95275.91
2023-05-09T14:08:26.902Z,95257.94
2023-05-09T14:10:53.945Z,95267.69
2023-05-09T14:13:20.995Z,95248.19
2023-05-09T14:15:47.965Z,95274.25
2023-05-09T14:18:17.853Z,95265.22
2023-05-09T14:20:47.052Z,95264.00
2023-05-09T14:23:13.859Z,95271.78
2023-05-09T14:25:40.887Z,95276.19
2023-05-09T14:28:09.458Z,95276.25
2023-05-09T14:30:36.772Z,95265.41
2023-05-09T14:33:03.738Z,95266.13
2023-05-09T14:35:33.944Z,95267.59
2023-05-09T14:38:01.599Z,95266.34
2023-05-09T14:40:32.207Z,95263.13
2023-05-09T14:43:02.618Z,95261.25
2023-05-09T14:45:31.476Z,95263.03
2023-05-09T14:48:03.345Z,95242.22
2023-05-09T14:50:30.665Z,95256.34
2023-05-09T14:52:57.850Z,95248.56
2023-05-09T14:55:26.664Z,95253.22
2023-05-09T14:57:53.773Z,95253.53
2023-05-09T15:00:22.239Z,95254.88
2023-05-09T15:02:50.244Z,95259.09
2023-05-09T15:05:17.760Z,95252.06
2023-05-09T15:07:44.682Z,95260.16
2023-05-09T15:10:11.962Z,95262.66
2023-05-09T15:12:38.903Z,95260.22
2023-05-09T15:15:14.150Z,95264.88
2023-05-09T15:17:41.383Z,95257.59
2023-05-09T15:20:08.572Z,95249.69
2023-05-09T15:22:35.565Z,95267.91
2023-05-09T15:25:05.385Z,95265.75
2023-05-09T15:27:33.334Z,95262.63
2023-05-09T15:30:00.518Z,95262.50
2023-05-09T15:32:27.825Z,95262.44
2023-05-09T15:34:55.165Z,95266.66
2023-05-09T15:37:22.485Z,95258.03
2023-05-09T15:39:49.639Z,95247.19
2023-05-09T15:42:17.832Z,95260.56
2023-05-09T15:44:47.246Z,95258.19
2023-05-09T15:47:14.554Z,95266.88
2023-05-09T15:49:41.507Z,95261.56
2023-05-09T15:52:10.442Z,95261.81
2023-05-09T15:54:38.078Z,95270.50
2023-05-09T15:57:05.186Z,95272.34
2023-05-09T15:59:32.121Z,95281.19
2023-05-09T16:01:59.199Z,95271.84
2023-05-09T16:04:26.290Z,95270.88
2023-05-09T16:06:53.822Z,95273.22
2023-05-09T16:09:20.866Z,95267.53
2023-05-09T16:11:48.027Z,95268.03
2023-05-09T16:14:15.006Z,95268.91
2023-05-09T16:16:43.056Z,95261.19
2023-05-09T16:19:11.718Z,95270.03
2023-05-09T16:21:39.349Z,95277.75
2023-05-09T16:24:06.582Z,95272.69
2023-05-09T16:26:33.628Z,95270.47
2023-05-09T16:29:01.841Z,95273.03
2023-05-09T16:31:29.275Z,95277.47
2023-05-09T16:33:56.529Z,95278.94
2023-05-09T16:36:23.407Z,95287.44
2023-05-09T16:38:50.613Z,95285.31
2023-05-09T16:41:17.558Z,95287.19
2023-05-09T16:43:44.516Z,95286.31
2023-05-09T16:46:11.612Z,95273.00
2023-05-09T16:48:38.656Z,95288.28
2023-05-09T16:51:05.729Z,95295.13
2023-05-09T16:53:32.682Z,95292.19
2023-05-09T16:55:59.660Z,95290.97
2023-05-09T16:58:26.702Z,95291.47
2023-05-09T17:00:55.056Z,95298.44
2023-05-09T17:03:22.056Z,95291.63
2023-05-09T17:05:48.914Z,95301.59
2023-05-09T17:08:15.902Z,95294.38
2023-05-09T17:10:42.992Z,95304.09
2023-05-09T17:13:10.343Z,95298.38
2023-05-09T17:15:38.454Z,95290.81
2023-05-09T17:18:06.610Z,95293.81
2023-05-09T17:20:33.586Z,95295.75
2023-05-09T17:23:00.648Z,95297.31
2023-05-09T17:25:27.627Z,95295.44
2023-05-09T17:27:54.537Z,95284.56
2023-05-09T17:30:23.200Z,95311.38
2023-05-09T17:32:50.662Z,95310.31
2023-05-09T17:35:20.043Z,95308.22
2023-05-09T17:37:46.954Z,95310.97
2023-05-09T17:40:14.857Z,95297.59
2023-05-09T17:42:42.367Z,95291.53
2023-05-09T17:45:12.087Z,95287.22
2023-05-09T17:47:39.416Z,95304.47
2023-05-09T17:50:14.485Z,95299.25
2023-05-09T17:52:41.987Z,95314.97
2023-05-09T17:55:09.187Z,95315.22
2023-05-09T17:57:36.292Z,95307.56
2023-05-09T18:00:07.884Z,95309.72
2023-05-09T18:02:41.284Z,95301.84
2023-05-09T18:05:10.046Z,95311.03
2023-05-09T18:07:39.551Z,95313.69
2023-05-09T18:10:07.915Z,95324.03
2023-05-09T18:12:37.019Z,95323.44
2023-05-09T18:15:05.014Z,95325.09
2023-05-09T18:17:33.249Z,95327.03
2023-05-09T18:20:00.241Z,95322.09
2023-05-09T18:22:27.064Z,95330.78
2023-05-09T18:24:54.091Z,95326.75
2023-05-09T18:27:21.461Z,95336.38
2023-05-09T18:29:48.591Z,95341.59
2023-05-09T18:32:16.310Z,95335.81
2023-05-09T18:34:43.256Z,95337.69
2023-05-09T18:37:10.522Z,95330.81
2023-05-09T18:39:37.442Z,95341.13
2023-05-09T18:42:06.377Z,95340.59
2023-05-09T18:44:33.526Z,95326.28
2023-05-09T18:47:00.664Z,95329.69
2023-05-09T18:49:27.618Z,95334.75
2023-05-09T18:51:56.477Z,95333.16
2023-05-09T18:54:23.538Z,95336.75
2023-05-09T18:56:50.569Z,95346.47
2023-05-09T18:59:17.924Z,95339.28
2023-05-09T19:01:44.908Z,95345.94
2023-05-09T19:04:12.063Z,95338.63
2023-05-09T19:06:39.200Z,95346.25
2023-05-09T19:09:06.116Z,95341.28
2023-05-09T19:11:33.103Z,95345.56
2023-05-09T19:14:00.161Z,95356.09
2023-05-09T19:16:27.143Z,95336.63
2023-05-09T19:18:56.207Z,95347.50
2023-05-09T19:21:41.865Z,95354.81
2023-05-09T19:24:09.172Z,95343.72
2023-05-09T19:26:36.113Z,95348.69
2023-05-09T19:29:07.809Z,95363.41
2023-05-09T19:31:37.111Z,95356.00
2023-05-09T19:34:04.003Z,95350.19
2023-05-09T19:36:31.983Z,95347.88
2023-05-09T19:38:58.934Z,95342.31
2023-05-09T19:41:26.172Z,95355.28
2023-05-09T19:43:53.493Z,95345.22
2023-05-09T19:46:22.303Z,95343.00
2023-05-09T19:48:49.338Z,95353.56
2023-05-09T19:51:16.351Z,95348.78
2023-05-09T19:53:43.216Z,95352.53
2023-05-09T19:56:10.204Z,95344.41
2023-05-09T19:58:37.177Z,95345.09
2023-05-09T20:01:07.209Z,95348.25
2023-05-09T20:03:36.746Z,95342.44
2023-05-09T20:06:03.756Z,95342.91
2023-05-09T20:08:31.185Z,95340.25
2023-05-09T20:11:00.035Z,95344.53
2023-05-09T20:13:27.793Z,95347.31
2023-05-09T20:15:55.277Z,95343.81
2023-05-09T20:18:22.202Z,95335.59
2023-05-09T20:20:49.132Z,95329.69
2023-05-09T20:23:16.072Z,95342.78
2023-05-09T20:25:42.909Z,95341.47
2023-05-09T20:28:11.898Z,95343.13
2023-05-09T20:30:38.954Z,95324.47
2023-05-09T20:33:05.930Z,95308.72
2023-05-09T20:35:33.047Z,95337.34
2023-05-09T20:37:59.996Z,95333.13
2023-05-09T20:40:26.931Z,95331.88
2023-05-09T20:42:53.953Z,95323.78
2023-05-09T20:45:21.207Z,95313.91
2023-05-09T20:47:48.217Z,95325.50
2023-05-09T20:50:15.245Z,95331.19
2023-05-09T20:52:43.394Z,95322.84
2023-05-09T20:55:10.265Z,95325.63
2023-05-09T20:57:37.354Z,95313.91
2023-05-09T21:00:06.119Z,95321.69
2023-05-09T21:02:36.060Z,95318.78
2023-05-09T21:05:03.876Z,95314.50
2023-05-09T21:07:33.064Z,95302.09
2023-05-09T21:10:00.175Z,95323.78
2023-05-09T21:12:27.502Z,95311.25
2023-05-09T21:14:55.016Z,95312.66
2023-05-09T21:17:21.972Z,95308.81
2023-05-09T21:19:51.587Z,95315.91
2023-05-09T21:22:18.674Z,95318.44
2023-05-09T21:24:45.682Z,95315.66
2023-05-09T21:27:12.823Z,95311.63
2023-05-09T21:29:40.173Z,95317.19
2023-05-09T21:32:07.150Z,95322.06
2023-05-09T21:34:34.152Z,95308.38
2023-05-09T21:37:01.031Z,95316.13
2023-05-09T21:39:28.047Z,95305.13
2023-05-09T21:41:54.899Z,95315.44
2023-05-09T21:44:21.741Z,95308.16
2023-05-09T21:46:48.861Z,95309.41
2023-05-09T21:49:20.976Z,95306.88
2023-05-09T21:51:48.686Z,95302.34
2023-05-09T21:54:15.615Z,95305.69
2023-05-09T21:56:42.672Z,95300.03
2023-05-09T21:59:10.678Z,95289.59
2023-05-09T22:01:37.626Z,95296.44
2023-05-09T22:04:05.700Z,95286.47
2023-05-09T22:06:33.334Z,95292.38
2023-05-09T22:09:00.245Z,95286.13
2023-05-09T22:11:27.124Z,95290.63
2023-05-09T22:13:55.412Z,95277.44
2023-05-09T22:16:22.930Z,95290.28
2023-05-09T22:18:49.794Z,95282.63
2023-05-09T22:21:16.838Z,95288.69
2023-05-09T22:23:43.967Z,95280.91
2023-05-09T22:26:11.135Z,95287.88
2023-05-09T22:28:38.102Z,95296.91
2023-05-09T22:31:06.761Z,95288.56
2023-05-09T22:33:34.332Z,95286.03
2023-05-09T22:36:01.405Z,95284.72
2023-05-09T22:38:28.463Z,95279.28
2023-05-09T22:40:55.304Z,95281.16
2023-05-09T22:43:22.520Z,95272.94
2023-05-09T22:45:49.755Z,95277.66
2023-05-09T22:48:16.894Z,95281.25
2023-05-09T22:50:43.802Z,95275.81
2023-05-09T22:53:11.011Z,95268.50
2023-05-09T22:55:38.788Z,95273.03
2023-05-09T22:58:06.111Z,95269.09
2023-05-09T23:00:32.951Z,95273.25
2023-05-09T23:03:00.569Z,95268.28
2023-05-09T23:05:27.557Z,95276.50
2023-05-09T23:07:54.813Z,95263.84
2023-05-09T23:10:21.916Z,95266.75
2023-05-09T23:12:49.010Z,95267.69
2023-05-09T23:15:16.095Z,95259.25
2023-05-09T23:17:43.038Z,95263.75
2023-05-09T23:20:10.757Z,95264.09
2023-05-09T23:22:37.595Z,95266.19
2023-05-09T23:25:06.484Z,95254.81
2023-05-09T23:27:33.509Z,95267.47
2023-05-09T23:30:00.387Z,95263.63
2023-05-09T23:32:27.551Z,95246.63
2023-05-09T23:34:54.473Z,95256.81
2023-05-09T23:37:21.325Z,95251.34
2023-05-09T23:39:48.238Z,95248.91
2023-05-09T23:42:15.138Z,95251.72
2023-05-09T23:44:42.651Z,95255.28
2023-05-09T23:47:09.428Z,95246.97
2023-05-09T23:49:36.607Z,95247.28
2023-05-09T23:52:03.533Z,95249.72
2023-05-09T23:54:30.703Z,95244.53
2023-05-09T23:56:58.144Z,95248.91
2023-05-09T23:59:25.104Z,95241.66
